Time;durP1;ratioP1;P1;durP2;ratioP2;P2;SDS_P1;SDS_P2;PMS_P1;PMS_P2;Temp;Humidity;BMP_temperature;BMP_pressure;BME280_temperature;BME280_humidity;BME280_pressure;Samples;Min_cycle;Max_cycle;Signal;HPM_P1;HPM_P2
2021/07/14 00:00:47;;;;;;;2.00;1.90;;;;;;;;;;5036302;28;20283;-50
2021/07/14 00:03:13;;;;;;;1.80;1.70;;;;;;;;;;5035994;28;20531;-49
2021/07/14 00:05:40;;;;;;;3.50;1.80;;;;;;;;;;5035864;28;20179;-50
2021/07/14 00:08:08;;;;;;;2.53;1.70;;;;;;;;;;5035647;28;20701;-50
2021/07/14 00:10:35;;;;;;;3.42;1.48;;;;;;;;;;5035792;28;20179;-50
2021/07/14 00:13:25;;;;;;;1.80;1.70;;;;;;;;;;5036062;28;20524;-48
2021/07/14 00:23:50;;;;;;;2.38;1.50;;;;;;;;;;5036040;28;20267;-48
2021/07/14 00:26:16;;;;;;;1.38;1.27;;;;;;;;;;5034530;28;20211;-48
2021/07/14 00:28:48;;;;;;;2.58;1.23;;;;;;;;;;5035763;28;20218;-48
2021/07/14 00:31:15;;;;;;;1.40;1.30;;;;;;;;;;5035733;28;20574;-48
2021/07/14 00:33:41;;;;;;;2.75;1.23;;;;;;;;;;5035720;28;20196;-47
2021/07/14 00:36:07;;;;;;;1.83;1.52;;;;;;;;;;5034996;28;20207;-48
2021/07/14 00:38:33;;;;;;;2.20;1.40;;;;;;;;;;5035467;28;20684;-47
2021/07/14 00:40:59;;;;;;;1.42;1.33;;;;;;;;;;5034949;28;20207;-47
2021/07/14 00:43:25;;;;;;;1.30;1.20;;;;;;;;;;5035528;28;20172;-47
2021/07/14 00:45:52;;;;;;;1.75;1.30;;;;;;;;;;5034973;28;20175;-47
2021/07/14 00:48:21;;;;;;;2.08;1.60;;;;;;;;;;5035194;28;20176;-48
2021/07/14 00:50:47;;;;;;;1.60;1.40;;;;;;;;;;5035470;28;20248;-47
2021/07/14 00:53:13;;;;;;;1.30;1.20;;;;;;;;;;5034954;28;20274;-47
2021/07/14 00:55:39;;;;;;;1.60;1.50;;;;;;;;;;5034963;28;20188;-48
2021/07/14 00:58:05;;;;;;;1.38;1.17;;;;;;;;;;5034924;28;20567;-48
2021/07/14 01:00:31;;;;;;;1.90;1.50;;;;;;;;;;5035034;28;20203;-48
2021/07/14 01:02:57;;;;;;;2.70;1.45;;;;;;;;;;5035427;28;20164;-48
2021/07/14 01:05:35;;;;;;;1.45;1.35;;;;;;;;;;5035272;28;20187;-47
2021/07/14 01:08:04;;;;;;;3.33;1.50;;;;;;;;;;5034527;28;20175;-47
2021/07/14 01:10:34;;;;;;;1.55;1.20;;;;;;;;;;5035033;28;20175;-48
2021/07/14 01:13:08;;;;;;;5.18;1.00;;;;;;;;;;5035180;28;20183;-48
2021/07/14 01:15:36;;;;;;;2.65;1.42;;;;;;;;;;5035513;28;20168;-48
2021/07/14 01:18:22;;;;;;;1.25;1.20;;;;;;;;;;5034585;28;20172;-48
2021/07/14 01:20:51;;;;;;;1.67;1.30;;;;;;;;;;5035083;28;20187;-47
2021/07/14 01:23:21;;;;;;;1.30;1.20;;;;;;;;;;5035080;28;20168;-46
2021/07/14 01:25:59;;;;;;;1.10;1.00;;;;;;;;;;5033857;28;20211;-47
2021/07/14 01:28:27;;;;;;;1.77;1.30;;;;;;;;;;5034945;28;20568;-47
2021/07/14 01:30:53;;;;;;;2.05;1.17;;;;;;;;;;5034937;28;20183;-47
2021/07/14 01:33:22;;;;;;;1.42;1.33;;;;;;;;;;5035374;28;20418;-47
2021/07/14 01:35:49;;;;;;;2.70;1.38;;;;;;;;;;5033783;28;20179;-47
2021/07/14 01:38:18;;;;;;;1.08;1.02;;;;;;;;;;5034336;28;20179;-48
2021/07/14 01:40:45;;;;;;;0.98;0.93;;;;;;;;;;5034464;28;20214;-48
2021/07/14 01:43:12;;;;;;;2.05;1.30;;;;;;;;;;5034683;28;20175;-47
2021/07/14 01:45:39;;;;;;;0.90;0.90;;;;;;;;;;5034727;28;20281;-48
2021/07/14 01:48:05;;;;;;;2.35;0.90;;;;;;;;;;5034200;28;20176;-47
2021/07/14 01:50:33;;;;;;;1.23;1.17;;;;;;;;;;5034609;28;20182;-48
2021/07/14 01:52:59;;;;;;;1.80;1.08;;;;;;;;;;5034668;28;20184;-48
2021/07/14 01:55:26;;;;;;;1.13;1.10;;;;;;;;;;5034091;28;20226;-48
2021/07/14 01:57:55;;;;;;;1.50;1.00;;;;;;;;;;5033527;28;20494;-47
2021/07/14 02:00:22;;;;;;;2.15;1.00;;;;;;;;;;5034247;28;20238;-48
2021/07/14 02:02:55;;;;;;;1.10;1.00;;;;;;;;;;5034631;28;20191;-48
2021/07/14 02:05:22;;;;;;;1.00;1.00;;;;;;;;;;5034141;28;20471;-48
2021/07/14 02:07:48;;;;;;;1.40;1.30;;;;;;;;;;5034774;28;20191;-47
2021/07/14 02:10:14;;;;;;;3.35;1.60;;;;;;;;;;5038126;28;20200;-47
2021/07/14 02:12:44;;;;;;;1.45;1.25;;;;;;;;;;5038096;28;20433;-48
2021/07/14 02:15:11;;;;;;;0.80;0.80;;;;;;;;;;5038152;28;20180;-50
2021/07/14 02:17:42;;;;;;;1.00;0.90;;;;;;;;;;5037273;28;20238;-50
2021/07/14 02:20:12;;;;;;;1.98;1.50;;;;;;;;;;5038295;28;20169;-50
2021/07/14 02:22:39;;;;;;;1.20;1.00;;;;;;;;;;5037898;28;20208;-50
2021/07/14 02:25:05;;;;;;;2.95;1.23;;;;;;;;;;5037351;28;20187;-50
2021/07/14 02:27:32;;;;;;;1.80;1.27;;;;;;;;;;5037688;28;20259;-50
2021/07/14 02:29:58;;;;;;;1.33;1.20;;;;;;;;;;5038095;28;20164;-50
2021/07/14 02:32:24;;;;;;;1.50;1.10;;;;;;;;;;5037984;28;20176;-50
2021/07/14 02:34:52;;;;;;;1.25;1.10;;;;;;;;;;5037345;28;20183;-50
2021/07/14 02:37:38;;;;;;;1.40;1.30;;;;;;;;;;5037585;28;20473;-50
2021/07/14 02:40:05;;;;;;;1.00;1.00;;;;;;;;;;5037567;28;20517;-50
2021/07/14 02:42:32;;;;;;;0.85;0.85;;;;;;;;;;5037807;28;20222;-50
2021/07/14 02:45:01;;;;;;;1.27;1.17;;;;;;;;;;5037588;28;20183;-50
2021/07/14 02:47:30;;;;;;;3.28;1.10;;;;;;;;;;5036924;28;20177;-51
2021/07/14 02:49:57;;;;;;;1.10;1.10;;;;;;;;;;5037251;28;20575;-50
2021/07/14 02:52:26;;;;;;;2.20;1.10;;;;;;;;;;5037500;28;20199;-50
2021/07/14 02:54:53;;;;;;;1.10;0.80;;;;;;;;;;5037197;28;20211;-49
2021/07/14 02:57:19;;;;;;;0.77;0.77;;;;;;;;;;5036565;28;20231;-50
2021/07/14 02:59:49;;;;;;;0.77;0.77;;;;;;;;;;5037420;28;20176;-50
2021/07/14 03:02:15;;;;;;;0.70;0.70;;;;;;;;;;5036861;28;20238;-50
2021/07/14 03:04:43;;;;;;;1.00;0.82;;;;;;;;;;5036956;28;20290;-50
2021/07/14 03:07:10;;;;;;;1.70;1.17;;;;;;;;;;5036874;28;20176;-50
2021/07/14 03:09:37;;;;;;;0.90;0.90;;;;;;;;;;5037349;28;20179;-50
2021/07/14 03:12:05;;;;;;;1.77;1.08;;;;;;;;;;5036665;28;20233;-50
2021/07/14 03:14:31;;;;;;;0.95;0.90;;;;;;;;;;5037119;28;20207;-51
2021/07/14 03:16:57;;;;;;;1.08;1.08;;;;;;;;;;5016846;28;20175;-49
2021/07/14 03:19:24;;;;;;;2.05;0.98;;;;;;;;;;5015930;28;20168;-50
2021/07/14 03:21:51;;;;;;;0.90;0.90;;;;;;;;;;5018616;28;20207;-50
2021/07/14 03:24:17;;;;;;;1.10;1.10;;;;;;;;;;5036863;28;20597;-50
2021/07/14 03:26:43;;;;;;;2.38;0.93;;;;;;;;;;5036291;28;20452;-50
2021/07/14 03:29:11;;;;;;;1.27;1.00;;;;;;;;;;5035814;28;20540;-50
2021/07/14 03:31:38;;;;;;;1.25;1.15;;;;;;;;;;5036734;28;20446;-50
2021/07/14 03:34:04;;;;;;;1.08;1.08;;;;;;;;;;5036559;28;20191;-50
2021/07/14 03:36:30;;;;;;;1.30;1.20;;;;;;;;;;5036309;28;20590;-50
2021/07/14 03:38:57;;;;;;;1.40;1.30;;;;;;;;;;5036592;28;20448;-50
2021/07/14 03:41:23;;;;;;;1.45;1.00;;;;;;;;;;5036364;28;20286;-50
2021/07/14 03:43:49;;;;;;;0.98;0.90;;;;;;;;;;5036213;28;20211;-50
2021/07/14 03:46:16;;;;;;;1.10;1.00;;;;;;;;;;5035832;28;20160;-50
2021/07/14 03:48:42;;;;;;;1.08;0.98;;;;;;;;;;5036352;28;20217;-50
2021/07/14 03:51:08;;;;;;;0.70;0.70;;;;;;;;;;5036431;28;20561;-50
2021/07/14 03:53:35;;;;;;;2.72;1.25;;;;;;;;;;5036217;28;20196;-50
2021/07/14 03:56:02;;;;;;;1.42;1.10;;;;;;;;;;5035547;28;20575;-49
2021/07/14 03:58:28;;;;;;;0.90;0.90;;;;;;;;;;5041050;28;20298;-50
2021/07/14 04:00:55;;;;;;;2.17;0.90;;;;;;;;;;5036256;28;20197;-50
2021/07/14 04:03:24;;;;;;;1.88;1.27;;;;;;;;;;5027731;28;20212;-49
2021/07/14 04:05:53;;;;;;;1.02;0.80;;;;;;;;;;5028263;28;20574;-50
2021/07/14 04:08:21;;;;;;;12.10;3.50;;;;;;;;;;5036219;28;20264;-50
2021/07/14 04:10:47;;;;;;;10.23;3.08;;;;;;;;;;5035707;28;20190;-50
2021/07/14 04:13:13;;;;;;;7.90;2.55;;;;;;;;;;5035624;28;20188;-50
2021/07/14 04:15:39;;;;;;;9.18;2.85;;;;;;;;;;5035789;28;20179;-49
2021/07/14 04:18:07;;;;;;;6.22;2.75;;;;;;;;;;5035459;28;20597;-50
2021/07/14 04:20:33;;;;;;;8.73;2.08;;;;;;;;;;5035798;28;20353;-50
2021/07/14 04:22:59;;;;;;;10.52;2.40;;;;;;;;;;5033958;28;20622;-50
2021/07/14 04:25:25;;;;;;;5.18;1.58;;;;;;;;;;5034313;28;20261;-50
2021/07/14 04:27:51;;;;;;;4.63;2.20;;;;;;;;;;5034316;28;20222;-49
2021/07/14 04:30:19;;;;;;;6.60;2.13;;;;;;;;;;5034922;28;20179;-50
2021/07/14 04:32:44;;;;;;;6.20;1.63;;;;;;;;;;5035551;28;20258;-50
2021/07/14 04:35:11;;;;;;;4.50;1.90;;;;;;;;;;5035536;28;20283;-50
2021/07/14 04:37:37;;;;;;;3.60;1.65;;;;;;;;;;5034654;28;20195;-49
2021/07/14 04:40:07;;;;;;;3.92;1.70;;;;;;;;;;5035191;28;20191;-50
2021/07/14 04:42:33;;;;;;;4.75;1.52;;;;;;;;;;5034660;28;20219;-50
2021/07/14 04:44:59;;;;;;;2.72;1.60;;;;;;;;;;5035318;28;20172;-50
2021/07/14 04:47:25;;;;;;;5.53;1.65;;;;;;;;;;5034639;28;20180;-49
2021/07/14 04:49:51;;;;;;;3.22;1.33;;;;;;;;;;5035081;28;20237;-50
2021/07/14 04:52:17;;;;;;;4.25;1.73;;;;;;;;;;5034755;28;20199;-50
2021/07/14 04:54:43;;;;;;;3.33;1.40;;;;;;;;;;5035139;28;20255;-50
2021/07/14 04:57:09;;;;;;;4.18;1.17;;;;;;;;;;5014830;28;20441;-50
2021/07/14 04:59:35;;;;;;;2.63;1.85;;;;;;;;;;5015341;28;20191;-49
2021/07/14 05:02:02;;;;;;;4.40;1.20;;;;;;;;;;5027903;28;20477;-50
2021/07/14 05:04:28;;;;;;;2.67;1.35;;;;;;;;;;5035061;28;20176;-50
2021/07/14 05:06:54;;;;;;;1.90;1.10;;;;;;;;;;5034443;28;20167;-50
2021/07/14 05:09:20;;;;;;;2.13;1.20;;;;;;;;;;5034902;28;20176;-49
2021/07/14 05:11:46;;;;;;;4.65;1.55;;;;;;;;;;5034280;28;20200;-50
2021/07/14 05:14:12;;;;;;;3.15;1.20;;;;;;;;;;5035016;28;20180;-49
2021/07/14 05:16:38;;;;;;;3.72;1.23;;;;;;;;;;5034639;28;20494;-49
2021/07/14 05:19:05;;;;;;;6.00;1.75;;;;;;;;;;5035273;28;20251;-50
2021/07/14 05:21:32;;;;;;;1.40;1.10;;;;;;;;;;5034642;28;20231;-50
2021/07/14 05:23:58;;;;;;;2.90;1.20;;;;;;;;;;5034465;28;20550;-50
2021/07/14 05:26:24;;;;;;;3.85;1.10;;;;;;;;;;5034216;28;20241;-50
2021/07/14 05:28:50;;;;;;;1.95;1.15;;;;;;;;;;5035088;28;20210;-50
2021/07/14 05:31:16;;;;;;;1.85;1.13;;;;;;;;;;5034815;28;20191;-50
2021/07/14 05:33:42;;;;;;;1.52;1.05;;;;;;;;;;5034788;28;20176;-50
2021/07/14 05:36:09;;;;;;;2.05;1.10;;;;;;;;;;5034039;28;20330;-50
2021/07/14 05:38:35;;;;;;;2.63;1.10;;;;;;;;;;5035036;28;20213;-50
2021/07/14 05:41:01;;;;;;;1.95;1.08;;;;;;;;;;5034018;28;20195;-50
2021/07/14 05:43:27;;;;;;;1.85;1.05;;;;;;;;;;5037061;28;20759;-50
2021/07/14 05:45:53;;;;;;;2.80;1.30;;;;;;;;;;5038089;28;20545;-49
2021/07/14 05:48:19;;;;;;;1.13;0.98;;;;;;;;;;5038547;28;20175;-50
2021/07/14 05:50:45;;;;;;;1.80;1.10;;;;;;;;;;5038310;28;20172;-50
2021/07/14 05:53:12;;;;;;;2.60;1.45;;;;;;;;;;5038269;28;20183;-49
2021/07/14 05:55:38;;;;;;;2.55;1.35;;;;;;;;;;5038279;28;20215;-50
2021/07/14 05:58:04;;;;;;;1.23;1.00;;;;;;;;;;5037981;28;20176;-50
2021/07/14 06:00:30;;;;;;;1.40;1.13;;;;;;;;;;5038394;28;20179;-50
2021/07/14 06:02:57;;;;;;;3.15;1.10;;;;;;;;;;5037950;28;20254;-50
2021/07/14 06:05:23;;;;;;;1.20;1.10;;;;;;;;;;5038467;28;20195;-50
2021/07/14 06:07:49;;;;;;;1.10;1.00;;;;;;;;;;5037615;28;20164;-50
2021/07/14 06:10:15;;;;;;;2.33;1.33;;;;;;;;;;5037883;28;20191;-50
2021/07/14 06:12:41;;;;;;;2.65;1.30;;;;;;;;;;5038304;28;20175;-50
2021/07/14 06:15:07;;;;;;;1.30;1.10;;;;;;;;;;5037759;28;20602;-50
2021/07/14 06:17:33;;;;;;;1.88;0.98;;;;;;;;;;5037683;28;20187;-50
2021/07/14 06:19:59;;;;;;;2.78;1.50;;;;;;;;;;5037955;28;20172;-50
2021/07/14 06:22:27;;;;;;;2.10;1.20;;;;;;;;;;5037630;28;20247;-50
2021/07/14 06:24:53;;;;;;;1.75;1.27;;;;;;;;;;5036802;28;20172;-50
2021/07/14 06:27:19;;;;;;;2.00;1.42;;;;;;;;;;5036450;28;20503;-50
2021/07/14 06:29:45;;;;;;;2.78;1.10;;;;;;;;;;5037580;28;20180;-50
2021/07/14 06:32:11;;;;;;;1.20;1.10;;;;;;;;;;5036975;28;20184;-50
2021/07/14 06:34:37;;;;;;;1.75;1.10;;;;;;;;;;5036886;28;20176;-49
2021/07/14 06:37:03;;;;;;;2.33;1.25;;;;;;;;;;5036176;28;20190;-50
2021/07/14 06:39:29;;;;;;;2.45;1.30;;;;;;;;;;5036763;28;20229;-49
2021/07/14 06:41:56;;;;;;;3.72;1.38;;;;;;;;;;5037386;28;20211;-50
2021/07/14 06:44:22;;;;;;;2.08;1.20;;;;;;;;;;5037257;28;20211;-50
2021/07/14 06:46:48;;;;;;;1.33;1.20;;;;;;;;;;5037284;28;20409;-50
2021/07/14 06:49:14;;;;;;;1.27;1.08;;;;;;;;;;5037163;28;20172;-49
2021/07/14 06:51:40;;;;;;;1.63;1.10;;;;;;;;;;5036855;28;20187;-49
2021/07/14 06:54:06;;;;;;;1.10;1.00;;;;;;;;;;5037084;28;20435;-50
2021/07/14 06:56:32;;;;;;;2.53;1.52;;;;;;;;;;5036521;28;20215;-49
2021/07/14 06:58:58;;;;;;;1.48;1.10;;;;;;;;;;5037043;28;20224;-49
2021/07/14 07:01:24;;;;;;;1.23;1.13;;;;;;;;;;5037168;28;20210;-50
2021/07/14 07:03:50;;;;;;;1.27;1.23;;;;;;;;;;5037073;28;20559;-50
2021/07/14 07:06:16;;;;;;;1.40;1.25;;;;;;;;;;5036531;28;20179;-50
2021/07/14 07:08:42;;;;;;;1.52;1.38;;;;;;;;;;5036981;28;20204;-49
2021/07/14 07:11:08;;;;;;;2.05;1.58;;;;;;;;;;5036584;28;20567;-50
2021/07/14 07:13:34;;;;;;;1.20;1.10;;;;;;;;;;5036164;28;20176;-50
2021/07/14 07:16:01;;;;;;;1.40;1.33;;;;;;;;;;5036242;28;20563;-50
2021/07/14 07:18:27;;;;;;;1.88;1.70;;;;;;;;;;5036555;28;20172;-51
2021/07/14 07:20:54;;;;;;;1.40;1.30;;;;;;;;;;5036505;28;20195;-50
2021/07/14 07:23:21;;;;;;;1.70;1.23;;;;;;;;;;5036166;28;20190;-50
2021/07/14 07:25:47;;;;;;;1.42;1.33;;;;;;;;;;5036022;28;20203;-50
2021/07/14 07:28:15;;;;;;;1.52;1.23;;;;;;;;;;5036403;28;20486;-50
2021/07/14 07:30:42;;;;;;;2.95;1.40;;;;;;;;;;5036412;28;20178;-50
2021/07/14 07:33:08;;;;;;;1.08;1.08;;;;;;;;;;5035866;28;20207;-50
2021/07/14 07:35:34;;;;;;;1.40;1.30;;;;;;;;;;5035990;28;20223;-50
2021/07/14 07:38:00;;;;;;;1.63;1.30;;;;;;;;;;5035984;28;20176;-50
2021/07/14 07:40:26;;;;;;;1.50;1.40;;;;;;;;;;5035800;28;20187;-50
2021/07/14 07:42:53;;;;;;;2.40;1.42;;;;;;;;;;5036314;28;20200;-50
2021/07/14 07:45:19;;;;;;;1.95;1.55;;;;;;;;;;5036067;28;20271;-50
2021/07/14 07:47:45;;;;;;;1.65;1.55;;;;;;;;;;5036046;28;20259;-50
2021/07/14 07:50:11;;;;;;;2.45;1.40;;;;;;;;;;5036068;28;20174;-50
2021/07/14 07:52:37;;;;;;;1.90;1.40;;;;;;;;;;5036222;28;20192;-50
2021/07/14 07:55:09;;;;;;;1.80;1.70;;;;;;;;;;5035868;28;20427;-50
2021/07/14 07:57:35;;;;;;;1.70;1.60;;;;;;;;;;5035276;28;20450;-50
2021/07/14 08:00:01;;;;;;;1.88;1.60;;;;;;;;;;5036212;28;20222;-50
2021/07/14 08:02:27;;;;;;;1.70;1.60;;;;;;;;;;5035958;28;20290;-50
2021/07/14 08:04:53;;;;;;;1.90;1.80;;;;;;;;;;5035455;28;20190;-50
2021/07/14 08:07:19;;;;;;;1.80;1.70;;;;;;;;;;5035253;28;20206;-50
2021/07/14 08:09:45;;;;;;;1.85;1.75;;;;;;;;;;5035676;28;20190;-50
2021/07/14 08:12:11;;;;;;;2.30;2.10;;;;;;;;;;5035491;28;20203;-50
2021/07/14 08:14:37;;;;;;;1.70;1.60;;;;;;;;;;5036220;28;20575;-50
2021/07/14 08:17:03;;;;;;;2.15;1.70;;;;;;;;;;5035298;28;20187;-50
2021/07/14 08:19:29;;;;;;;1.77;1.55;;;;;;;;;;5035472;28;20195;-50
2021/07/14 08:21:55;;;;;;;4.13;1.65;;;;;;;;;;5035449;28;20207;-50
2021/07/14 08:24:21;;;;;;;2.20;1.42;;;;;;;;;;5035565;28;20191;-50
2021/07/14 08:26:47;;;;;;;1.83;1.73;;;;;;;;;;5035000;28;20611;-51
2021/07/14 08:29:13;;;;;;;3.35;1.73;;;;;;;;;;5035576;28;20290;-49
2021/07/14 08:31:40;;;;;;;1.98;1.88;;;;;;;;;;5035144;28;20467;-49
2021/07/14 08:34:06;;;;;;;1.70;1.60;;;;;;;;;;5035291;28;20183;-50
2021/07/14 08:36:32;;;;;;;1.90;1.60;;;;;;;;;;5035084;28;20310;-50
2021/07/14 08:38:58;;;;;;;1.98;1.77;;;;;;;;;;5035616;28;20211;-50
2021/07/14 08:41:24;;;;;;;2.83;1.80;;;;;;;;;;5035223;28;20215;-50
2021/07/14 08:43:52;;;;;;;2.63;1.40;;;;;;;;;;5035256;28;20169;-50
2021/07/14 08:46:18;;;;;;;1.75;1.60;;;;;;;;;;5034778;28;20595;-50
2021/07/14 08:48:45;;;;;;;1.63;1.52;;;;;;;;;;5035392;28;20176;-49
2021/07/14 08:51:11;;;;;;;1.63;1.50;;;;;;;;;;5035587;28;20428;-49
2021/07/14 08:53:37;;;;;;;1.67;1.50;;;;;;;;;;5035038;28;20467;-50
2021/07/14 08:56:03;;;;;;;1.88;1.58;;;;;;;;;;5034670;28;20208;-50
2021/07/14 08:58:30;;;;;;;1.73;1.63;;;;;;;;;;5034871;28;20608;-49
2021/07/14 09:00:58;;;;;;;1.30;1.30;;;;;;;;;;5034860;28;20535;-50
2021/07/14 09:03:25;;;;;;;1.92;1.48;;;;;;;;;;5034795;28;20411;-49
2021/07/14 09:05:51;;;;;;;1.73;1.63;;;;;;;;;;5034687;28;20207;-49
2021/07/14 09:08:17;;;;;;;1.45;1.38;;;;;;;;;;5034387;28;20254;-50
2021/07/14 09:10:47;;;;;;;1.50;1.40;;;;;;;;;;5034863;28;20179;-50
2021/07/14 09:13:14;;;;;;;1.45;1.35;;;;;;;;;;5034998;28;20172;-50
2021/07/14 09:15:50;;;;;;;1.45;1.35;;;;;;;;;;5034864;28;20246;-49
2021/07/14 09:18:20;;;;;;;2.15;1.30;;;;;;;;;;5034891;28;20171;-50
2021/07/14 09:20:46;;;;;;;1.45;1.40;;;;;;;;;;5034600;28;20172;-50
2021/07/14 09:23:17;;;;;;;1.45;1.35;;;;;;;;;;5034677;28;20247;-50
2021/07/14 09:25:56;;;;;;;1.70;1.60;;;;;;;;;;5034815;28;20187;-50
2021/07/14 09:28:23;;;;;;;1.48;1.38;;;;;;;;;;5034884;28;20182;-49
2021/07/14 09:31:00;;;;;;;1.50;1.40;;;;;;;;;;5034470;28;20183;-50
2021/07/14 09:33:27;;;;;;;1.55;1.42;;;;;;;;;;5047707;28;20180;-49
2021/07/14 09:35:54;;;;;;;1.23;1.20;;;;;;;;;;5054145;28;20449;-49
2021/07/14 09:38:22;;;;;;;1.25;1.25;;;;;;;;;;5054151;28;20170;-50
2021/07/14 09:40:52;;;;;;;1.45;1.35;;;;;;;;;;5038976;28;20686;-50
2021/07/14 09:43:19;;;;;;;2.70;1.52;;;;;;;;;;5034485;28;20226;-50
2021/07/14 09:45:52;;;;;;;1.60;1.50;;;;;;;;;;5033654;28;20172;-50
2021/07/14 09:48:21;;;;;;;1.63;1.23;;;;;;;;;;5034371;28;20249;-50
2021/07/14 09:50:51;;;;;;;2.78;1.40;;;;;;;;;;5034208;28;20168;-50
2021/07/14 09:53:21;;;;;;;1.50;1.40;;;;;;;;;;5034082;28;20219;-50
2021/07/14 09:55:48;;;;;;;1.00;1.00;;;;;;;;;;5033823;28;20559;-50
2021/07/14 09:58:14;;;;;;;1.35;1.25;;;;;;;;;;5034153;28;20274;-49
2021/07/14 10:00:40;;;;;;;1.48;1.20;;;;;;;;;;5034301;28;20243;-50
2021/07/14 10:03:07;;;;;;;1.23;1.20;;;;;;;;;;5034132;28;20202;-50
2021/07/14 10:05:33;;;;;;;1.40;1.30;;;;;;;;;;5034539;28;20168;-49
2021/07/14 10:08:18;;;;;;;1.50;1.40;;;;;;;;;;5033695;28;20179;-50
2021/07/14 10:10:44;;;;;;;1.10;1.10;;;;;;;;;;5033954;28;20175;-50
2021/07/14 10:13:11;;;;;;;1.40;1.30;;;;;;;;;;5034226;28;20294;-50
2021/07/14 10:15:37;;;;;;;1.42;1.17;;;;;;;;;;5034135;28;20251;-49
2021/07/14 10:18:03;;;;;;;1.70;1.33;;;;;;;;;;5033457;28;20241;-50
2021/07/14 10:20:30;;;;;;;1.38;1.27;;;;;;;;;;5033795;28;20172;-50
2021/07/14 10:23:03;;;;;;;1.40;1.27;;;;;;;;;;5033901;28;20851;-49
2021/07/14 10:25:29;;;;;;;1.50;1.40;;;;;;;;;;5033734;28;20190;-50
2021/07/14 10:27:56;;;;;;;1.10;1.10;;;;;;;;;;5033523;28;20163;-50
2021/07/14 10:30:22;;;;;;;2.78;1.25;;;;;;;;;;5037283;28;20195;-49
2021/07/14 10:32:48;;;;;;;1.60;1.50;;;;;;;;;;5037818;28;20547;-50
2021/07/14 10:35:16;;;;;;;1.88;1.30;;;;;;;;;;5037529;28;20297;-50
2021/07/14 10:37:53;;;;;;;1.20;1.20;;;;;;;;;;5036933;28;20178;-50
2021/07/14 10:40:21;;;;;;;1.20;1.20;;;;;;;;;;5037484;28;20187;-50
2021/07/14 10:42:47;;;;;;;1.40;1.30;;;;;;;;;;5037143;28;20203;-49
2021/07/14 10:45:14;;;;;;;1.77;1.10;;;;;;;;;;5037576;28;20230;-49
2021/07/14 10:47:40;;;;;;;1.38;1.27;;;;;;;;;;5036750;28;20180;-50
2021/07/14 10:50:07;;;;;;;3.33;1.40;;;;;;;;;;5037313;28;20199;-49
2021/07/14 10:52:33;;;;;;;1.55;1.25;;;;;;;;;;5037399;28;20475;-50
2021/07/14 10:54:59;;;;;;;1.17;1.17;;;;;;;;;;5037119;28;20610;-50
2021/07/14 10:57:26;;;;;;;1.30;1.13;;;;;;;;;;5036056;28;20172;-49
2021/07/14 10:59:53;;;;;;;1.80;1.30;;;;;;;;;;5036891;28;20557;-50
2021/07/14 11:02:37;;;;;;;1.67;1.48;;;;;;;;;;5036919;28;20204;-50
2021/07/14 11:05:03;;;;;;;1.02;1.02;;;;;;;;;;5037266;28;20427;-50
2021/07/14 11:07:41;;;;;;;1.23;1.17;;;;;;;;;;5036172;28;20176;-49
2021/07/14 11:10:23;;;;;;;1.23;1.13;;;;;;;;;;5036130;28;20558;-48
2021/07/14 11:12:49;;;;;;;1.00;1.00;;;;;;;;;;5036517;28;20275;-49
2021/07/14 11:15:29;;;;;;;1.45;1.35;;;;;;;;;;5037010;28;20492;-50
2021/07/14 11:17:55;;;;;;;1.30;1.20;;;;;;;;;;5036597;28;20456;-49
2021/07/14 11:20:21;;;;;;;1.10;1.10;;;;;;;;;;5036366;28;20182;-49
2021/07/14 11:22:49;;;;;;;1.17;1.15;;;;;;;;;;5036671;28;20207;-50
2021/07/14 11:25:21;;;;;;;1.23;1.13;;;;;;;;;;5036354;28;20184;-49
2021/07/14 11:27:53;;;;;;;1.27;1.17;;;;;;;;;;5036551;28;20180;-49
2021/07/14 11:30:20;;;;;;;1.85;1.30;;;;;;;;;;5037144;28;20192;-50
2021/07/14 11:32:46;;;;;;;1.50;1.30;;;;;;;;;;5036254;28;20188;-49
2021/07/14 11:35:15;;;;;;;1.65;1.40;;;;;;;;;;5036195;28;20222;-50
2021/07/14 11:37:41;;;;;;;1.20;1.20;;;;;;;;;;5036116;28;20207;-50
2021/07/14 11:40:19;;;;;;;1.45;1.35;;;;;;;;;;5034959;28;20216;-50
2021/07/14 11:42:51;;;;;;;1.33;1.23;;;;;;;;;;5036479;28;20214;-49
2021/07/14 11:45:36;;;;;;;1.10;1.10;;;;;;;;;;5036073;28;20184;-50
2021/07/14 11:48:25;;;;;;;3.47;1.25;;;;;;;;;;5035953;28;20217;-50
2021/07/14 11:50:56;;;;;;;1.08;1.08;;;;;;;;;;5031194;28;20184;-49
2021/07/14 11:53:28;;;;;;;2.17;1.23;;;;;;;;;;5035971;28;20211;-50
2021/07/14 11:56:14;;;;;;;1.92;1.00;;;;;;;;;;5034868;28;20263;-50
2021/07/14 11:58:44;;;;;;;1.10;1.10;;;;;;;;;;5016331;28;20192;-51
2021/07/14 12:01:10;;;;;;;1.10;1.10;;;;;;;;;;5020240;28;20199;-49
2021/07/14 12:03:36;;;;;;;0.93;0.93;;;;;;;;;;5036077;28;20172;-50
2021/07/14 12:06:22;;;;;;;2.10;1.08;;;;;;;;;;5035467;28;20179;-50
2021/07/14 12:08:49;;;;;;;1.27;1.17;;;;;;;;;;5035720;28;20254;-49
2021/07/14 12:11:19;;;;;;;1.05;1.05;;;;;;;;;;5035602;28;20191;-49
2021/07/14 12:13:48;;;;;;;0.90;0.90;;;;;;;;;;5036341;28;20176;-50
2021/07/14 12:16:25;;;;;;;1.13;1.10;;;;;;;;;;5035334;28;20187;-49
2021/07/14 12:18:54;;;;;;;1.10;1.10;;;;;;;;;;5035249;28;20175;-50
2021/07/14 12:21:37;;;;;;;1.60;1.10;;;;;;;;;;5035819;28;20249;-49
2021/07/14 12:24:03;;;;;;;1.38;1.08;;;;;;;;;;5035609;28;20200;-51
2021/07/14 12:26:29;;;;;;;0.95;0.82;;;;;;;;;;5035081;28;20172;-49
2021/07/14 12:28:55;;;;;;;0.90;0.90;;;;;;;;;;5035692;28;20171;-49
2021/07/14 12:31:22;;;;;;;1.08;1.08;;;;;;;;;;5035383;28;20168;-50
2021/07/14 12:33:52;;;;;;;1.00;1.00;;;;;;;;;;5035506;28;20180;-49
2021/07/14 12:36:18;;;;;;;2.15;0.95;;;;;;;;;;5035057;28;20196;-50
2021/07/14 12:38:52;;;;;;;1.10;1.10;;;;;;;;;;5035177;28;20266;-50
2021/07/14 12:41:18;;;;;;;1.10;1.10;;;;;;;;;;5035543;28;20671;-50
2021/07/14 12:43:44;;;;;;;1.25;1.17;;;;;;;;;;5035299;28;20179;-50
2021/07/14 12:46:10;;;;;;;1.52;0.90;;;;;;;;;;5034975;28;20222;-49
2021/07/14 12:48:36;;;;;;;1.98;1.10;;;;;;;;;;5049687;28;20262;-49
2021/07/14 12:51:02;;;;;;;3.15;1.05;;;;;;;;;;5051445;28;20184;-49
2021/07/14 12:53:27;;;;;;;0.90;0.90;;;;;;;;;;5035006;28;20218;-50
2021/07/14 12:55:54;;;;;;;1.20;1.13;;;;;;;;;;5034751;28;20457;-49
2021/07/14 12:58:22;;;;;;;1.10;0.90;;;;;;;;;;5034756;28;20175;-49
2021/07/14 13:00:50;;;;;;;1.10;0.90;;;;;;;;;;5035004;28;20168;-50
2021/07/14 13:03:21;;;;;;;2.53;1.10;;;;;;;;;;5034272;28;20565;-50
2021/07/14 13:05:47;;;;;;;2.47;1.17;;;;;;;;;;5034026;28;20585;-50
2021/07/14 13:08:21;;;;;;;1.20;1.20;;;;;;;;;;5034821;28;20168;-50
2021/07/14 13:10:47;;;;;;;0.90;0.90;;;;;;;;;;5034117;28;20555;-50
2021/07/14 13:13:14;;;;;;;1.05;1.05;;;;;;;;;;5034704;28;20187;-50
2021/07/14 13:15:40;;;;;;;1.30;1.25;;;;;;;;;;5034367;28;20195;-50
2021/07/14 13:18:07;;;;;;;1.02;1.02;;;;;;;;;;5034024;28;20175;-49
2021/07/14 13:20:36;;;;;;;1.13;1.02;;;;;;;;;;5034556;28;20192;-50
2021/07/14 13:23:03;;;;;;;1.10;1.00;;;;;;;;;;5028907;28;20208;-49
2021/07/14 13:25:37;;;;;;;1.20;1.10;;;;;;;;;;5024160;28;20186;-49
2021/07/14 13:28:23;;;;;;;1.00;1.00;;;;;;;;;;5030139;28;20502;-50
2021/07/14 13:30:49;;;;;;;1.25;0.98;;;;;;;;;;5020752;28;20188;-50
2021/07/14 13:33:16;;;;;;;1.35;1.20;;;;;;;;;;5025327;28;20190;-50
2021/07/14 13:35:44;;;;;;;1.33;1.23;;;;;;;;;;5026001;28;20203;-49
2021/07/14 13:38:28;;;;;;;2.60;1.08;;;;;;;;;;5034305;28;20574;-50
2021/07/14 13:41:12;;;;;;;2.53;1.50;;;;;;;;;;5027384;28;20526;-50
2021/07/14 13:44:10;;;;;;;2.10;1.27;;;;;;;;;;5014829;28;20428;-50
2021/07/14 13:46:44;;;;;;;1.50;1.40;;;;;;;;;;5020368;28;20196;-49
2021/07/14 13:49:10;;;;;;;1.70;1.30;;;;;;;;;;5032883;28;20187;-50
2021/07/14 13:51:36;;;;;;;1.35;1.25;;;;;;;;;;5033896;28;20195;-50
2021/07/14 13:54:21;;;;;;;1.13;1.00;;;;;;;;;;5032277;28;20493;-51
2021/07/14 13:56:48;;;;;;;1.23;1.23;;;;;;;;;;5030993;28;20180;-51
2021/07/14 13:59:20;;;;;;;1.20;1.10;;;;;;;;;;5030043;28;20266;-50
2021/07/14 14:01:53;;;;;;;2.03;1.20;;;;;;;;;;5026785;28;20199;-49
2021/07/14 14:04:19;;;;;;;2.15;1.63;;;;;;;;;;5032393;28;20198;-50
2021/07/14 14:06:48;;;;;;;1.52;1.20;;;;;;;;;;5034210;28;20238;-50
2021/07/14 14:09:21;;;;;;;2.05;1.40;;;;;;;;;;5034583;28;20471;-51
2021/07/14 14:11:47;;;;;;;1.45;1.15;;;;;;;;;;5036903;28;20570;-49
2021/07/14 14:14:13;;;;;;;1.27;1.20;;;;;;;;;;5038039;28;20223;-50
2021/07/14 14:16:39;;;;;;;1.35;1.25;;;;;;;;;;5034985;28;20188;-49
2021/07/14 14:19:13;;;;;;;1.52;1.42;;;;;;;;;;5035879;28;20187;-50
2021/07/14 14:21:39;;;;;;;1.30;1.25;;;;;;;;;;5026168;28;20208;-49
2021/07/14 14:24:14;;;;;;;2.28;1.20;;;;;;;;;;5036070;28;20192;-49
2021/07/14 14:26:40;;;;;;;1.42;1.27;;;;;;;;;;5036759;28;20227;-49
2021/07/14 14:29:06;;;;;;;1.52;1.42;;;;;;;;;;5035620;28;20186;-50
2021/07/14 14:31:33;;;;;;;1.40;1.30;;;;;;;;;;5042922;28;20606;-49
2021/07/14 14:33:59;;;;;;;1.42;1.35;;;;;;;;;;5037253;28;20184;-49
2021/07/14 14:36:25;;;;;;;1.35;1.25;;;;;;;;;;5035400;28;20241;-51
2021/07/14 14:38:51;;;;;;;2.17;1.40;;;;;;;;;;5036062;28;20191;-49
2021/07/14 14:41:17;;;;;;;1.65;1.52;;;;;;;;;;5036834;28;20513;-51
2021/07/14 14:43:44;;;;;;;2.33;1.23;;;;;;;;;;5035100;28;20180;-51
2021/07/14 14:46:11;;;;;;;1.40;1.30;;;;;;;;;;5027579;28;20552;-50
2021/07/14 14:48:39;;;;;;;1.35;1.25;;;;;;;;;;5033787;28;20254;-50
2021/07/14 14:51:09;;;;;;;1.63;1.52;;;;;;;;;;5035821;28;20594;-50
2021/07/14 14:53:35;;;;;;;1.33;1.23;;;;;;;;;;5036110;28;20188;-50
2021/07/14 14:56:01;;;;;;;1.80;1.50;;;;;;;;;;5034684;28;20275;-50